Time;durP1;ratioP1;P1;durP2;ratioP2;P2;SDS_P1;SDS_P2;PMS_P1;PMS_P2;Temp;Humidity;BMP_temperature;BMP_pressure;BME280_temperature;BME280_humidity;BME280_pressure;Samples;Min_cycle;Max_cycle;Signal;HPM_P1;HPM_P2
2023/07/27 00:00:01;;;;;;;1.00;0.67;;;;;12.60;96770.00;;;;5064867;28;20197;-90
2023/07/27 00:02:50;;;;;;;1.17;0.90;;;;;12.60;96779.00;;;;5066396;28;20228;-88
2023/07/27 00:05:40;;;;;;;1.30;0.70;;;;;12.90;96783.00;;;;5064124;28;20227;-87
2023/07/27 00:08:30;;;;;;;1.17;1.00;;;;;13.30;96776.00;;;;5058767;28;20208;-86
2023/07/27 00:11:19;;;;;;;1.37;0.90;;;;;13.20;96766.00;;;;5055956;28;20199;-87
2023/07/27 00:14:08;;;;;;;5.30;1.27;;;;;13.20;96769.00;;;;5057440;28;20203;-87
2023/07/27 00:16:57;;;;;;;2.80;1.20;;;;;13.20;96773.00;;;;5067022;28;20203;-87
2023/07/27 00:19:46;;;;;;;1.87;0.97;;;;;13.10;96766.00;;;;5064972;28;20689;-86
2023/07/27 00:22:37;;;;;;;3.63;1.20;;;;;12.70;96764.00;;;;5061532;28;20695;-87
2023/07/27 00:25:26;;;;;;;2.90;1.33;;;;;12.50;96757.00;;;;5067098;28;20683;-87
2023/07/27 00:28:15;;;;;;;1.20;1.10;;;;;12.70;96765.00;;;;5065651;28;20203;-88
2023/07/27 00:31:04;;;;;;;1.93;1.00;;;;;12.60;96763.00;;;;5057769;28;20208;-89
2023/07/27 00:33:53;;;;;;;1.37;1.27;;;;;12.60;96763.00;;;;5066661;28;20655;-88
2023/07/27 00:36:42;;;;;;;1.60;1.13;;;;;12.20;96756.00;;;;5064241;28;20208;-86
2023/07/27 00:39:33;;;;;;;1.50;1.13;;;;;11.90;96760.00;;;;5064410;28;20586;-87
2023/07/27 00:42:22;;;;;;;1.67;1.57;;;;;12.30;96760.00;;;;5066290;28;20226;-89
2023/07/27 00:45:11;;;;;;;1.17;0.97;;;;;12.70;96756.00;;;;5058287;28;20226;-88
2023/07/27 00:48:01;;;;;;;1.17;1.03;;;;;13.00;96749.00;;;;5056702;28;20205;-88
2023/07/27 00:50:50;;;;;;;1.43;1.10;;;;;13.20;96752.00;;;;5067130;28;20196;-88
2023/07/27 00:53:39;;;;;;;0.70;0.70;;;;;13.10;96758.00;;;;5065407;28;20275;-88
2023/07/27 00:56:30;;;;;;;1.57;1.13;;;;;13.00;96769.00;;;;5056983;28;20224;-87
2023/07/27 00:59:19;;;;;;;1.30;0.90;;;;;12.80;96777.00;;;;5067108;28;20208;-88
2023/07/27 01:02:09;;;;;;;1.83;1.20;;;;;12.60;96766.00;;;;5061845;28;20223;-88
2023/07/27 01:04:58;;;;;;;1.00;0.90;;;;;12.70;96771.00;;;;5058995;28;20356;-89
2023/07/27 01:07:47;;;;;;;0.83;0.83;;;;;12.70;96769.00;;;;5067256;28;20223;-88
2023/07/27 01:10:47;;;;;;;0.70;0.70;;;;;12.60;96764.00;;;;5057246;28;20576;-89
2023/07/27 01:13:42;;;;;;;1.87;1.37;;;;;12.90;96766.00;;;;5059803;28;20196;-89
2023/07/27 01:16:34;;;;;;;1.00;0.90;;;;;12.90;96761.00;;;;5066395;28;20621;-89
2023/07/27 01:19:47;;;;;;;1.57;1.30;;;;;12.70;96770.00;;;;5050433;28;20251;-90
2023/07/27 01:23:10;;;;;;;1.90;1.30;;;;;12.60;96771.00;;;;5063431;28;20233;-88
2023/07/27 01:26:29;;;;;;;1.50;0.90;;;;;12.70;96759.00;;;;5059343;28;20223;-87
2023/07/27 01:29:40;;;;;;;1.17;1.03;;;;;12.60;96748.00;;;;5053402;28;20196;-87
2023/07/27 01:32:33;;;;;;;1.20;1.10;;;;;12.40;96742.00;;;;5059306;28;20198;-88
2023/07/27 01:35:23;;;;;;;1.73;1.13;;;;;12.10;96755.00;;;;5059445;28;20231;-87
2023/07/27 01:38:13;;;;;;;1.30;1.20;;;;;12.20;96746.00;;;;5055698;28;20671;-86
2023/07/27 01:41:03;;;;;;;2.43;1.13;;;;;12.20;96748.00;;;;5055554;28;20654;-86
2023/07/27 01:43:52;;;;;;;3.27;1.40;;;;;12.20;96749.00;;;;5066188;28;20220;-87
2023/07/27 01:46:41;;;;;;;0.90;0.80;;;;;12.30;96748.00;;;;5061135;28;20809;-88
2023/07/27 01:49:33;;;;;;;1.60;1.40;;;;;12.40;96756.00;;;;5061362;28;20195;-90
2023/07/27 01:52:22;;;;;;;1.37;1.10;;;;;12.30;96760.00;;;;5064101;28;20204;-87
2023/07/27 01:55:12;;;;;;;1.40;1.30;;;;;11.90;96772.00;;;;5062059;28;20215;-88
2023/07/27 01:58:02;;;;;;;7.37;1.73;;;;;12.10;96772.00;;;;5056869;28;20197;-89
2023/07/27 02:00:51;;;;;;;1.30;1.17;;;;;12.00;96773.00;;;;5066739;28;20748;-88
2023/07/27 02:03:40;;;;;;;1.67;1.23;;;;;12.00;96775.00;;;;5071813;28;20216;-87
2023/07/27 02:06:31;;;;;;;1.70;1.27;;;;;11.90;96773.00;;;;5095648;28;20203;-89
2023/07/27 02:09:20;;;;;;;2.63;1.43;;;;;12.00;96780.00;;;;5096744;28;20175;-89
2023/07/27 02:12:15;;;;;;;1.33;1.23;;;;;11.90;96778.00;;;;5090191;28;20200;-89
2023/07/27 02:15:06;;;;;;;1.93;1.40;;;;;11.60;96795.00;;;;5065228;28;20227;-89
2023/07/27 02:17:58;;;;;;;1.37;1.23;;;;;11.40;96784.00;;;;5057098;28;20212;-88
2023/07/27 02:20:48;;;;;;;1.10;1.10;;;;;11.30;96790.00;;;;5055887;28;20211;-89
2023/07/27 02:23:39;;;;;;;1.63;1.10;;;;;11.10;96778.00;;;;5061948;28;20228;-87
2023/07/27 02:26:29;;;;;;;5.10;1.80;;;;;11.40;96790.00;;;;5059964;28;20220;-88
2023/07/27 02:29:18;;;;;;;10.73;1.53;;;;;11.70;96790.00;;;;5069776;28;20196;-88
2023/07/27 02:32:08;;;;;;;1.57;1.47;;;;;11.80;96792.00;;;;5063575;28;20212;-87
2023/07/27 02:34:57;;;;;;;1.63;1.20;;;;;11.20;96797.00;;;;5067112;28;20743;-87
2023/07/27 02:37:46;;;;;;;1.40;1.30;;;;;11.40;96804.00;;;;5068017;28;20215;-88
2023/07/27 02:40:37;;;;;;;1.20;1.10;;;;;11.70;96815.00;;;;5063916;28;20222;-89
2023/07/27 02:43:26;;;;;;;3.93;1.17;;;;;11.80;96809.00;;;;5060730;28;20606;-87
2023/07/27 02:46:15;;;;;;;1.63;1.33;;;;;11.70;96816.00;;;;5065109;28;20219;-87
2023/07/27 02:49:04;;;;;;;1.50;1.17;;;;;11.50;96826.00;;;;5064879;28;20200;-87
2023/07/27 02:51:53;;;;;;;1.47;1.37;;;;;11.40;96819.00;;;;5058335;28;20203;-88
2023/07/27 02:54:42;;;;;;;1.73;1.40;;;;;11.70;96829.00;;;;5065781;28;20219;-89
2023/07/27 02:57:33;;;;;;;1.43;1.33;;;;;11.90;96828.00;;;;5067479;28;20246;-89
2023/07/27 03:00:22;;;;;;;1.37;1.00;;;;;11.90;96834.00;;;;5067142;28;20675;-88
2023/07/27 03:03:11;;;;;;;1.73;1.00;;;;;12.10;96830.00;;;;5062689;28;20216;-88
2023/07/27 03:06:02;;;;;;;1.13;1.10;;;;;11.90;96830.00;;;;5059297;28;20610;-87
2023/07/27 03:08:51;;;;;;;1.23;1.13;;;;;11.50;96829.00;;;;5066171;28;20204;-88
2023/07/27 03:11:40;;;;;;;1.30;0.90;;;;;11.20;96831.00;;;;5064434;28;20211;-88
2023/07/27 03:14:30;;;;;;;1.27;1.17;;;;;11.40;96834.00;;;;5067398;28;20188;-87
2023/07/27 03:17:19;;;;;;;2.07;1.67;;;;;11.80;96844.00;;;;5068660;28;20204;-88
2023/07/27 03:20:10;;;;;;;2.00;1.20;;;;;12.00;96836.00;;;;5063628;28;20209;-88
2023/07/27 03:23:00;;;;;;;2.03;1.33;;;;;11.70;96831.00;;;;5063779;28;20307;-88
2023/07/27 03:25:49;;;;;;;1.70;0.83;;;;;11.70;96833.00;;;;5062238;28;20224;-88
2023/07/27 03:28:38;;;;;;;2.30;1.50;;;;;11.10;96821.00;;;;5062728;28;20208;-87
2023/07/27 03:31:30;;;;;;;1.33;1.23;;;;;11.00;96823.00;;;;5061114;28;20196;-87
2023/07/27 03:34:19;;;;;;;1.60;1.37;;;;;11.50;96834.00;;;;5065898;28;20195;-88
2023/07/27 03:37:08;;;;;;;1.77;1.67;;;;;11.70;96833.00;;;;5061811;28;20205;-88
2023/07/27 03:39:58;;;;;;;1.50;1.10;;;;;11.60;96826.00;;;;5063952;28;20211;-87
2023/07/27 03:42:47;;;;;;;3.73;1.23;;;;;11.60;96827.00;;;;5066597;28;20215;-87
2023/07/27 03:45:36;;;;;;;1.97;1.30;;;;;11.30;96833.00;;;;5061214;28;20239;-88
2023/07/27 03:48:26;;;;;;;4.57;2.10;;;;;11.70;96847.00;;;;5067902;28;20200;-89
2023/07/27 03:51:16;;;;;;;1.83;1.40;;;;;11.70;96845.00;;;;5065191;28;20667;-89
2023/07/27 03:54:05;;;;;;;1.30;1.20;;;;;11.50;96839.00;;;;5065467;28;20581;-89
2023/07/27 03:56:54;;;;;;;2.40;1.10;;;;;11.80;96848.00;;;;5067578;28;20208;-87
2023/07/27 03:59:43;;;;;;;3.60;1.67;;;;;12.00;96847.00;;;;5069510;28;20199;-89
2023/07/27 04:02:32;;;;;;;3.40;1.33;;;;;12.10;96847.00;;;;5060277;28;20212;-88
2023/07/27 04:05:23;;;;;;;2.07;1.67;;;;;12.10;96846.00;;;;5061090;28;20216;-88
2023/07/27 04:08:12;;;;;;;2.53;1.57;;;;;11.80;96838.00;;;;5056316;28;20204;-88
2023/07/27 04:11:01;;;;;;;1.27;1.17;;;;;12.00;96848.00;;;;5064683;28;20192;-88
2023/07/27 04:13:50;;;;;;;1.63;1.40;;;;;11.80;96848.00;;;;5060109;28;20205;-88
2023/07/27 04:16:39;;;;;;;2.33;1.60;;;;;11.60;96852.00;;;;5063528;28;20208;-89
2023/07/27 04:19:29;;;;;;;1.63;1.37;;;;;11.40;96846.00;;;;5067284;28;20199;-88
2023/07/27 04:22:19;;;;;;;1.97;1.20;;;;;11.10;96845.00;;;;5059663;28;20197;-88
2023/07/27 04:25:09;;;;;;;1.60;1.50;;;;;11.80;96847.00;;;;5066751;28;20235;-88
2023/07/27 04:27:58;;;;;;;3.00;1.60;;;;;12.10;96838.00;;;;5064023;28;20201;-88
2023/07/27 04:30:47;;;;;;;1.47;1.37;;;;;12.20;96841.00;;;;5064680;28;20212;-88
2023/07/27 04:33:37;;;;;;;1.93;1.53;;;;;12.30;96839.00;;;;5060540;28;20204;-88
2023/07/27 04:36:26;;;;;;;1.20;1.10;;;;;12.30;96838.00;;;;5065193;28;20226;-88
2023/07/27 04:39:17;;;;;;;1.87;1.63;;;;;11.90;96834.00;;;;5065430;28;20192;-88
2023/07/27 04:42:06;;;;;;;4.13;1.77;;;;;12.10;96830.00;;;;5060468;28;20224;-88
2023/07/27 04:44:55;;;;;;;1.30;1.20;;;;;12.40;96822.00;;;;5068372;28;20238;-88
2023/07/27 04:47:46;;;;;;;2.90;1.53;;;;;12.20;96815.00;;;;5061393;28;20200;-87
2023/07/27 04:50:35;;;;;;;1.73;1.40;;;;;12.30;96821.00;;;;5057148;28;20679;-86
2023/07/27 04:53:24;;;;;;;3.90;1.83;;;;;12.20;96812.00;;;;5060427;28;20196;-88
2023/07/27 04:56:14;;;;;;;4.30;1.63;;;;;12.30;96820.00;;;;5064199;28;20222;-87
2023/07/27 04:59:04;;;;;;;5.57;2.00;;;;;12.60;96810.00;;;;5063425;28;20208;-88
2023/07/27 05:01:53;;;;;;;2.03;1.83;;;;;13.00;96808.00;;;;5060027;28;20207;-87
2023/07/27 05:04:42;;;;;;;1.50;1.37;;;;;12.70;96799.00;;;;5062759;28;20296;-88
2023/07/27 05:07:31;;;;;;;1.67;1.30;;;;;13.00;96808.00;;;;5061924;28;20964;-88
2023/07/27 05:10:22;;;;;;;2.00;1.40;;;;;13.30;96805.00;;;;5063600;28;20210;-87
2023/07/27 05:13:13;;;;;;;3.37;1.60;;;;;13.60;96810.00;;;;5057308;28;20207;-88
2023/07/27 05:16:02;;;;;;;1.63;1.47;;;;;13.90;96812.00;;;;5067303;28;20223;-87
2023/07/27 05:18:52;;;;;;;2.20;1.70;;;;;13.80;96810.00;;;;5066852;28;20200;-87
2023/07/27 05:21:41;;;;;;;1.67;1.50;;;;;13.90;96799.00;;;;5064146;28;20214;-88
2023/07/27 05:24:31;;;;;;;2.40;1.40;;;;;14.00;96807.00;;;;5062437;28;20228;-87
2023/07/27 05:27:20;;;;;;;1.40;1.20;;;;;14.60;96814.00;;;;5057090;28;20208;-88
2023/07/27 05:30:11;;;;;;;1.40;1.30;;;;;15.10;96811.00;;;;5060394;28;20199;-88
2023/07/27 05:33:01;;;;;;;2.77;2.00;;;;;15.40;96822.00;;;;5059212;28;20730;-89
2023/07/27 05:35:50;;;;;;;2.00;1.50;;;;;15.30;96826.00;;;;5057533;28;20277;-88
2023/07/27 05:38:39;;;;;;;1.97;1.57;;;;;15.50;96824.00;;;;5051360;28;20204;-87
2023/07/27 05:41:29;;;;;;;1.97;1.53;;;;;15.30;96822.00;;;;5056800;28;20234;-87
2023/07/27 05:44:18;;;;;;;3.73;1.70;;;;;15.20;96823.00;;;;5065381;28;20224;-89
2023/07/27 05:47:09;;;;;;;1.70;1.30;;;;;15.10;96831.00;;;;5067646;28;20195;-88
2023/07/27 05:49:58;;;;;;;2.13;1.60;;;;;15.30;96840.00;;;;5058777;28;20211;-88
2023/07/27 05:52:53;;;;;;;1.77;1.60;;;;;15.50;96848.00;;;;5063159;28;20238;-88
2023/07/27 05:55:45;;;;;;;2.90;1.70;;;;;15.90;96847.00;;;;5067657;28;20268;-88
2023/07/27 05:58:37;;;;;;;1.50;1.40;;;;;16.40;96852.00;;;;5058980;28;20691;-88
2023/07/27 06:05:23;;;;;;;1.30;1.13;;;;;17.10;96862.00;;;;5056660;28;20234;-88
2023/07/27 06:08:12;;;;;;;1.57;1.30;;;;;17.10;96857.00;;;;5061185;28;20211;-89
2023/07/27 06:11:03;;;;;;;5.23;1.30;;;;;17.40;96850.00;;;;5057165;28;20200;-88
2023/07/27 06:13:53;;;;;;;5.27;1.50;;;;;17.10;96852.00;;;;5060592;28;20211;-88
2023/07/27 06:16:42;;;;;;;2.10;1.27;;;;;17.10;96851.00;;;;5061383;28;20211;-88
2023/07/27 06:19:31;;;;;;;3.53;1.27;;;;;16.90;96855.00;;;;5066355;28;20208;-88
2023/07/27 06:22:22;;;;;;;1.27;1.17;;;;;17.10;96858.00;;;;5064580;28;20324;-88
2023/07/27 06:25:11;;;;;;;4.03;1.77;;;;;17.60;96861.00;;;;5062000;28;20228;-89
2023/07/27 06:28:00;;;;;;;2.20;1.20;;;;;18.10;96858.00;;;;5055343;28;20192;-89
2023/07/27 06:30:50;;;;;;;2.30;1.47;;;;;18.10;96861.00;;;;5062365;28;20687;-88
2023/07/27 06:33:39;;;;;;;1.60;1.40;;;;;18.30;96859.00;;;;5061087;28;20212;-89
2023/07/27 06:36:28;;;;;;;2.63;1.20;;;;;18.70;96852.00;;;;5061073;28;20231;-88
2023/07/27 06:39:19;;;;;;;2.43;1.33;;;;;19.00;96850.00;;;;5067008;28;20204;-90
2023/07/27 06:42:08;;;;;;;2.37;1.73;;;;;19.10;96858.00;;;;5065456;28;20219;-89
2023/07/27 06:44:59;;;;;;;3.83;1.57;;;;;19.40;96852.00;;;;5057548;28;20726;-88
2023/07/27 06:47:48;;;;;;;5.23;1.83;;;;;19.40;96849.00;;;;5060306;28;20670;-87
2023/07/27 06:50:37;;;;;;;2.40;1.50;;;;;19.70;96845.00;;;;5054254;28;20196;-88
2023/07/27 06:53:26;;;;;;;2.17;1.43;;;;;20.10;96852.00;;;;5057062;28;20209;-86
2023/07/27 06:56:17;;;;;;;3.70;1.80;;;;;19.80;96845.00;;;;5062361;28;20212;-88
2023/07/27 06:59:06;;;;;;;1.87;1.27;;;;;20.00;96850.00;;;;5068992;28;20196;-88
2023/07/27 07:01:57;;;;;;;1.60;1.50;;;;;20.20;96841.00;;;;5070501;28;20200;-87
2023/07/27 07:04:47;;;;;;;2.37;1.63;;;;;20.40;96842.00;;;;5067516;28;20772;-87
2023/07/27 07:07:38;;;;;;;2.00;1.60;;;;;20.20;96833.00;;;;5065518;28;20680;-88
2023/07/27 07:10:28;;;;;;;2.70;1.90;;;;;20.50;96844.00;;;;5065848;28;20204;-88
2023/07/27 07:13:18;;;;;;;4.27;1.73;;;;;20.60;96838.00;;;;5063473;28;20207;-88
2023/07/27 07:16:25;;;;;;;3.90;1.93;;;;;21.10;96848.00;;;;5058349;28;20220;-87
2023/07/27 07:19:14;;;;;;;2.30;1.53;;;;;21.40;96839.00;;;;5067572;28;20207;-87
2023/07/27 07:22:05;;;;;;;5.73;1.80;;;;;21.30;96834.00;;;;5059110;28;20209;-87
2023/07/27 07:24:54;;;;;;;1.57;1.23;;;;;21.40;96836.00;;;;5058065;28;20240;-86
2023/07/27 07:27:44;;;;;;;1.77;1.30;;;;;21.50;96829.00;;;;5063646;28;20210;-87
2023/07/27 07:30:34;;;;;;;2.23;1.70;;;;;21.50;96821.00;;;;5056436;28;20201;-87
2023/07/27 07:33:23;;;;;;;1.37;1.17;;;;;21.80;96834.00;;;;5060004;28;20836;-87
2023/07/27 07:36:12;;;;;;;3.67;1.40;;;;;21.90;96825.00;;;;5063835;28;20227;-86
2023/07/27 07:39:01;;;;;;;2.83;2.00;;;;;22.10;96819.00;;;;5061659;28;20205;-87
2023/07/27 07:41:51;;;;;;;1.90;1.60;;;;;22.10;96830.00;;;;5067099;28;20200;-87
2023/07/27 07:44:40;;;;;;;4.67;1.47;;;;;22.40;96827.00;;;;5067052;28;20246;-87
2023/07/27 07:47:30;;;;;;;1.83;1.20;;;;;22.60;96821.00;;;;5065151;28;20371;-87
2023/07/27 07:50:19;;;;;;;2.40;1.40;;;;;22.60;96841.00;;;;5059121;28;20906;-86
2023/07/27 07:53:08;;;;;;;3.17;1.53;;;;;23.20;96834.00;;;;5066440;28;20204;-88
2023/07/27 07:55:58;;;;;;;2.03;1.30;;;;;23.20;96828.00;;;;5063511;28;20212;-87
2023/07/27 07:58:47;;;;;;;2.07;1.30;;;;;23.50;96815.00;;;;5063361;28;20196;-87
2023/07/27 08:01:36;;;;;;;2.00;1.80;;;;;23.90;96812.00;;;;5067761;28;20219;-87
2023/07/27 08:04:30;;;;;;;1.77;1.40;;;;;24.20;96808.00;;;;5066051;28;20675;-87
2023/07/27 08:07:20;;;;;;;2.97;1.57;;;;;24.00;96807.00;;;;5060470;28;20207;-87
2023/07/27 08:10:10;;;;;;;4.13;1.83;;;;;24.50;96807.00;;;;5070035;28;20208;-87
2023/07/27 08:12:59;;;;;;;1.40;1.30;;;;;24.40;96801.00;;;;5064964;28;20215;-85
2023/07/27 08:15:52;;;;;;;1.83;1.53;;;;;24.60;96800.00;;;;5055988;28;20208;-86
2023/07/27 08:18:45;;;;;;;1.70;1.40;;;;;24.70;96793.00;;;;5062157;28;20242;-87
2023/07/27 08:21:42;;;;;;;2.40;2.20;;;;;24.00;96783.00;;;;5063342;28;20742;-86
2023/07/27 08:24:32;;;;;;;1.73;1.60;;;;;23.70;96783.00;;;;5064474;28;20196;-87
2023/07/27 08:27:22;;;;;;;1.90;1.50;;;;;24.90;96771.00;;;;5065597;28;20236;-87
2023/07/27 08:30:12;;;;;;;3.60;1.70;;;;;24.80;96776.00;;;;5056343;28;20599;-86
2023/07/27 08:33:02;;;;;;;1.30;1.20;;;;;24.50;96775.00;;;;5062809;28;20211;-86
2023/07/27 08:35:51;;;;;;;1.73;1.60;;;;;24.10;96776.00;;;;5070801;28;20220;-86
2023/07/27 08:38:42;;;;;;;1.50;1.30;;;;;22.90;96779.00;;;;5065340;28;20620;-84
2023/07/27 08:41:31;;;;;;;1.57;1.27;;;;;22.70;96780.00;;;;5065037;28;20560;-85
2023/07/27 08:44:20;;;;;;;1.37;1.27;;;;;24.20;96787.00;;;;5059997;28;20697;-86
2023/07/27 08:47:10;;;;;;;2.03;1.50;;;;;24.60;96784.00;;;;5063915;28;20224;-85
2023/07/27 08:49:59;;;;;;;2.33;1.60;;;;;23.70;96790.00;;;;5061329;28;20215;-86
2023/07/27 08:52:48;;;;;;;2.00;1.80;;;;;24.90;96774.00;;;;5063993;28;20196;-85
2023/07/27 08:55:39;;;;;;;2.50;1.70;;;;;24.90;96785.00;;;;5065790;28;20234;-86
2023/07/27 08:58:30;;;;;;;2.00;1.60;;;;;25.40;96769.00;;;;5062811;28;20685;-87
2023/07/27 09:01:20;;;;;;;4.40;1.50;;;;;25.90;96770.00;;;;5062626;28;20252;-87
2023/07/27 09:04:11;;;;;;;4.53;1.70;;;;;25.90;96783.00;;;;5065800;28;20206;-86
2023/07/27 09:07:07;;;;;;;1.70;1.60;;;;;25.50;96781.00;;;;5065671;28;20941;-86
2023/07/27 09:09:57;;;;;;;2.33;1.73;;;;;25.00;96777.00;;;;5062812;28;20247;-88
2023/07/27 09:12:48;;;;;;;2.83;2.07;;;;;25.50;96776.00;;;;5069647;28;20196;-86
2023/07/27 09:15:43;;;;;;;1.97;1.30;;;;;25.70;96781.00;;;;5068040;28;20220;-86
2023/07/27 09:18:36;;;;;;;2.07;1.60;;;;;25.80;96775.00;;;;5057392;28;20205;-87
2023/07/27 09:21:29;;;;;;;4.97;1.70;;;;;26.20;96781.00;;;;5066435;28;20707;-87
2023/07/27 09:24:18;;;;;;;3.50;1.80;;;;;26.70;96774.00;;;;5062622;28;20201;-87
2023/07/27 09:27:11;;;;;;;2.17;1.67;;;;;26.80;96775.00;;;;5065053;28;20425;-87
2023/07/27 09:30:04;;;;;;;2.67;2.17;;;;;26.90;96773.00;;;;5060377;28;20742;-86
2023/07/27 09:33:00;;;;;;;2.30;1.50;;;;;27.00;96777.00;;;;5058250;28;20254;-87
2023/07/27 09:36:01;;;;;;;1.97;1.57;;;;;26.90;96771.00;;;;5067364;28;20211;-88
2023/07/27 09:38:53;;;;;;;2.37;1.50;;;;;25.40;96774.00;;;;5066595;28;20201;-87
2023/07/27 09:41:44;;;;;;;2.20;1.67;;;;;25.80;96774.00;;;;5064284;28;20256;-86
2023/07/27 09:44:35;;;;;;;3.13;1.47;;;;;25.80;96778.00;;;;5060702;28;20239;-86
2023/07/27 09:47:31;;;;;;;1.70;1.53;;;;;25.00;96775.00;;;;5066253;28;20227;-86
2023/07/27 09:50:24;;;;;;;1.70;1.20;;;;;25.60;96768.00;;;;5057802;28;20243;-86
2023/07/27 09:53:16;;;;;;;1.93;1.73;;;;;26.40;96765.00;;;;5061343;28;20200;-87
2023/07/27 09:56:08;;;;;;;2.13;1.90;;;;;25.40;96757.00;;;;5059977;28;20242;-86
2023/07/27 09:58:58;;;;;;;2.60;1.83;;;;;25.40;96750.00;;;;5060615;28;20212;-86
2023/07/27 10:01:49;;;;;;;2.27;2.07;;;;;26.80;96749.00;;;;5060176;28;20201;-87
2023/07/27 10:04:43;;;;;;;2.97;1.90;;;;;27.50;96747.00;;;;5065994;28;20223;-87
2023/07/27 10:07:36;;;;;;;4.43;2.03;;;;;27.40;96744.00;;;;5055278;28;20761;-87
2023/07/27 10:10:51;;;;;;;2.47;1.93;;;;;27.90;96745.00;;;;5067256;28;20195;-87
2023/07/27 10:14:04;;;;;;;1.90;1.67;;;;;28.70;96742.00;;;;5066589;28;20876;-88
2023/07/27 10:17:02;;;;;;;2.47;2.27;;;;;28.80;96724.00;;;;5058189;28;20215;-87
2023/07/27 10:20:00;;;;;;;2.07;1.80;;;;;29.10;96713.00;;;;5059924;28;20224;-87
2023/07/27 10:23:10;;;;;;;2.10;1.70;;;;;29.70;96712.00;;;;5062351;28;20201;-88
2023/07/27 10:26:15;;;;;;;1.73;1.13;;;;;29.40;96704.00;;;;5062530;28;20714;-89
2023/07/27 10:29:17;;;;;;;1.67;1.40;;;;;29.50;96700.00;;;;5067827;28;20560;-88
2023/07/27 10:32:13;;;;;;;3.73;1.60;;;;;29.80;96701.00;;;;5073453;28;20686;-88
2023/07/27 10:35:09;;;;;;;4.03;2.00;;;;;27.00;96686.00;;;;5069573;28;20255;-88
2023/07/27 10:38:02;;;;;;;3.60;1.77;;;;;27.70;96734.00;;;;5070935;28;20198;-88
2023/07/27 10:40:59;;;;;;;1.77;1.67;;;;;28.50;96727.00;;;;5071871;28;20201;-89
2023/07/27 10:44:15;;;;;;;3.70;1.77;;;;;27.50;96727.00;;;;5074281;28;20292;-87
2023/07/27 10:47:08;;;;;;;1.67;1.47;;;;;27.10;96724.00;;;;5067626;28;20728;-88
2023/07/27 10:49:58;;;;;;;6.87;1.37;;;;;26.70;96716.00;;;;5061502;28;20209;-87
2023/07/27 10:52:53;;;;;;;1.63;1.50;;;;;26.30;96681.00;;;;5060839;28;20204;-87
2023/07/27 10:55:43;;;;;;;2.10;1.90;;;;;27.60;96656.00;;;;5059957;28;20220;-87
2023/07/27 10:58:34;;;;;;;2.50;1.87;;;;;27.90;96654.00;;;;5058368;28;20206;-87
2023/07/27 11:01:26;;;;;;;2.40;2.07;;;;;29.00;96646.00;;;;5069916;28;20609;-87
2023/07/27 11:04:29;;;;;;;2.63;1.57;;;;;29.60;96642.00;;;;5069280;28;20559;-88
2023/07/27 11:07:28;;;;;;;2.90;1.30;;;;;29.10;96661.00;;;;5061941;28;20217;-88
2023/07/27 11:10:29;;;;;;;2.20;1.67;;;;;29.80;96631.00;;;;5064389;28;20212;-89
2023/07/27 11:13:24;;;;;;;2.13;1.60;;;;;30.20;96630.00;;;;5061072;28;20205;-87
2023/07/27 11:16:14;;;;;;;3.13;1.67;;;;;29.40;96621.00;;;;5058426;28;20235;-88
2023/07/27 11:19:06;;;;;;;2.23;1.50;;;;;28.40;96684.00;;;;5061732;28;20210;-89
2023/07/27 11:22:02;;;;;;;1.63;1.53;;;;;28.00;96682.00;;;;5068778;28;20211;-90
2023/07/27 11:24:56;;;;;;;3.20;1.73;;;;;27.90;96670.00;;;;5062982;28;20222;-88
2023/07/27 11:27:49;;;;;;;2.27;1.70;;;;;28.20;96673.00;;;;5068071;28;20217;-88
2023/07/27 11:30:38;;;;;;;1.73;1.53;;;;;27.50;96683.00;;;;5064232;28;20218;-88
2023/07/27 11:33:37;;;;;;;3.10;1.60;;;;;29.00;96607.00;;;;5061297;28;20210;-88
2023/07/27 11:36:36;;;;;;;1.77;1.50;;;;;29.80;96675.00;;;;5062381;28;20291;-89
2023/07/27 11:39:36;;;;;;;1.63;1.40;;;;;29.50;96604.00;;;;5071828;28;20217;-88
2023/07/27 11:42:41;;;;;;;2.20;1.60;;;;;31.00;96595.00;;;;5069586;28;20210;-90
2023/07/27 11:45:38;;;;;;;2.93;1.40;;;;;32.10;96596.00;;;;5061814;28;20226;-90
2023/07/27 11:48:32;;;;;;;3.10;1.83;;;;;31.40;96619.00;;;;5060651;28;20306;-90
2023/07/27 11:51:35;;;;;;;2.43;1.73;;;;;31.30;96596.00;;;;5065357;28;20725;-90
2023/07/27 11:54:35;;;;;;;3.83;2.07;;;;;32.20;96590.00;;;;5058622;28;20215;-90
2023/07/27 11:57:31;;;;;;;3.17;1.47;;;;;30.00;96585.00;;;;5058070;28;20243;-88
2023/07/27 12:00:21;;;;;;;1.63;1.40;;;;;27.90;96570.00;;;;5064206;28;20690;-87
2023/07/27 12:03:13;;;;;;;1.90;1.67;;;;;27.30;96568.00;;;;5062135;28;20210;-88
2023/07/27 12:06:09;;;;;;;1.50;1.40;;;;;27.30;96574.00;;;;5067452;28;20219;-89
2023/07/27 12:09:04;;;;;;;1.93;1.63;;;;;28.00;96582.00;;;;5058160;28;20205;-88
2023/07/27 12:11:55;;;;;;;2.03;1.43;;;;;27.70;96561.00;;;;5061814;28;21917;-88
2023/07/27 12:14:44;;;;;;;2.43;1.50;;;;;30.40;96560.00;;;;5060448;28;20223;-88
2023/07/27 12:18:09;;;;;;;2.00;1.50;;;;;31.80;96560.00;;;;5068105;28;20585;-90
2023/07/27 12:21:23;;;;;;;2.33;1.23;;;;;31.10;96624.00;;;;5064702;28;20197;-90
2023/07/27 12:24:19;;;;;;;1.57;1.30;;;;;29.60;96621.00;;;;5061595;28;20199;-88
2023/07/27 12:27:18;;;;;;;2.10;1.80;;;;;29.10;96613.00;;;;5066733;28;20232;-90
2023/07/27 12:30:30;;;;;;;4.77;2.30;;;;;28.70;96535.00;;;;5067116;28;20200;-89
2023/07/27 12:33:40;;;;;;;3.47;1.90;;;;;28.80;96603.00;;;;5055017;28;20219;-89
2023/07/27 12:36:34;;;;;;;2.00;1.60;;;;;27.90;96607.00;;;;5060681;28;20285;-89
2023/07/27 12:39:52;;;;;;;3.13;1.83;;;;;29.30;96544.00;;;;5054483;28;20205;-89
2023/07/27 12:42:46;;;;;;;2.10;1.37;;;;;31.80;96539.00;;;;5058305;28;20703;-89
2023/07/27 12:46:02;;;;;;;2.33;1.60;;;;;31.50;96610.00;;;;5062232;28;20234;-91
2023/07/27 12:49:07;;;;;;;2.17;1.67;;;;;31.30;96603.00;;;;5055402;28;20223;-88
2023/07/27 12:52:05;;;;;;;2.53;1.90;;;;;31.60;96606.00;;;;5066174;28;20244;-90
2023/07/27 12:54:57;;;;;;;3.20;1.33;;;;;31.00;96591.00;;;;5053933;28;20265;-90
2023/07/27 12:57:46;;;;;;;1.97;1.57;;;;;29.00;96596.00;;;;5065381;28;20284;-89
2023/07/27 13:00:35;;;;;;;2.07;1.80;;;;;29.40;96586.00;;;;5064624;28;20210;-91
2023/07/27 13:03:25;;;;;;;2.80;2.37;;;;;31.10;96518.00;;;;5059666;28;20276;-91
2023/07/27 13:06:14;;;;;;;2.23;1.90;;;;;31.00;96548.00;;;;5063227;28;20251;-91
2023/07/27 13:09:07;;;;;;;2.43;2.03;;;;;30.60;96576.00;;;;5061784;28;20655;-90
2023/07/27 13:11:56;;;;;;;2.77;2.10;;;;;31.70;96575.00;;;;5063425;28;20211;-91
2023/07/27 13:14:46;;;;;;;2.37;1.60;;;;;30.70;96581.00;;;;5058857;28;20231;-91
2023/07/27 13:17:37;;;;;;;2.45;1.83;;;;;30.00;96593.00;;;;5063988;28;20207;-91
2023/07/27 13:20:26;;;;;;;2.20;1.60;;;;;28.90;96584.00;;;;5056358;28;20203;-90
2023/07/27 13:23:15;;;;;;;2.03;1.47;;;;;28.80;96583.00;;;;5058849;28;20212;-89
2023/07/27 13:26:08;;;;;;;2.03;1.57;;;;;28.70;96581.00;;;;5060308;28;20256;-90
2023/07/27 13:28:58;;;;;;;2.13;1.50;;;;;28.70;96583.00;;;;5059011;28;20209;-91
2023/07/27 13:31:47;;;;;;;2.70;1.90;;;;;28.80;96585.00;;;;5058465;28;20260;-90
2023/07/27 13:34:36;;;;;;;3.73;1.90;;;;;28.30;96581.00;;;;5060829;28;20227;-92
2023/07/27 13:37:26;;;;;;;1.33;1.23;;;;;28.00;96588.00;;;;5064557;28;20199;-91
2023/07/27 13:40:15;;;;;;;2.30;1.70;;;;;28.10;96588.00;;;;5063070;28;20214;-90
2023/07/27 13:43:05;;;;;;;3.10;1.60;;;;;28.00;96580.00;;;;5059884;28;20220;-90
2023/07/27 13:45:54;;;;;;;2.23;1.33;;;;;28.10;96579.00;;;;5062870;28;20235;-89
2023/07/27 13:48:44;;;;;;;2.50;1.70;;;;;27.90;96582.00;;;;5059035;28;20234;-89
2023/07/27 13:51:33;;;;;;;3.00;1.73;;;;;27.80;96572.00;;;;5065238;28;20208;-89
2023/07/27 13:54:22;;;;;;;1.43;1.17;;;;;27.60;96574.00;;;;5063838;28;20244;-90
2023/07/27 13:57:11;;;;;;;1.83;1.50;;;;;27.60;96567.00;;;;5056915;28;20202;-89
2023/07/27 14:00:02;;;;;;;2.23;1.60;;;;;27.70;96561.00;;;;5057850;28;20190;-88
2023/07/27 14:03:07;;;;;;;1.53;1.33;;;;;27.90;96563.00;;;;5066851;28;20195;-88
2023/07/27 14:06:11;;;;;;;3.03;1.90;;;;;27.80;96566.00;;;;5061479;28;20779;-89
2023/07/27 14:09:02;;;;;;;2.37;1.90;;;;;27.80;96570.00;;;;5062723;28;20324;-89
2023/07/27 14:11:58;;;;;;;2.00;1.80;;;;;27.90;96566.00;;;;5061103;28;20203;-90
2023/07/27 14:14:57;;;;;;;2.73;1.53;;;;;27.90;96558.00;;;;5055171;28;20226;-89
2023/07/27 14:17:51;;;;;;;3.33;1.90;;;;;28.40;96532.00;;;;5059848;28;20196;-88
2023/07/27 14:20:46;;;;;;;2.27;1.60;;;;;29.10;96545.00;;;;5067893;28;20228;-90
2023/07/27 14:23:35;;;;;;;3.23;1.80;;;;;28.70;96544.00;;;;5064599;28;20587;-88
2023/07/27 14:26:25;;;;;;;2.23;1.97;;;;;28.70;96562.00;;;;5050646;28;20239;-90